Time;durP1;ratioP1;P1;durP2;ratioP2;P2;SDS_P1;SDS_P2;PMS_P1;PMS_P2;Temp;Humidity;BMP_temperature;BMP_pressure;BME280_temperature;BME280_humidity;BME280_pressure;Samples;Min_cycle;Max_cycle;Signal;HPM_P1;HPM_P2
2022/01/30 00:01:46;;;;;;;;;;;9.70;86.30;;;;;;4969866;28;20490;-76
2022/01/30 00:04:12;;;;;;;;;;;9.70;86.30;;;;;;4969004;28;20012;-77
2022/01/30 00:06:38;;;;;;;;;;;9.70;86.20;;;;;;4951657;28;19917;-75
2022/01/30 00:09:06;;;;;;;;;;;9.70;86.20;;;;;;4970166;28;19906;-77
2022/01/30 00:11:35;;;;;;;;;;;9.70;86.20;;;;;;4969562;28;19910;-76
2022/01/30 00:14:03;;;;;;;;;;;9.70;86.10;;;;;;4952158;28;19906;-75
2022/01/30 00:16:32;;;;;;;;;;;9.70;86.00;;;;;;4968509;28;19909;-75
2022/01/30 00:24:53;;;;;;;;;;;9.70;86.10;;;;;;4920368;28;19983;-77
2022/01/30 00:27:27;;;;;;;;;;;9.70;86.00;;;;;;4964556;28;20838;-76
2022/01/30 00:29:53;;;;;;;;;;;9.70;85.90;;;;;;4965056;28;19921;-76
2022/01/30 00:32:18;;;;;;;;;;;9.70;86.40;;;;;;4950439;29;19906;-76
2022/01/30 00:34:44;;;;;;;;;;;9.70;85.90;;;;;;4965060;28;19965;-75
2022/01/30 00:37:09;;;;;;;;;;;9.70;85.80;;;;;;4965152;28;19911;-76
2022/01/30 00:39:35;;;;;;;;;;;9.70;85.80;;;;;;4964509;28;20300;-75
2022/01/30 00:42:00;;;;;;;;;;;9.70;85.70;;;;;;4967229;28;19910;-76
2022/01/30 00:44:26;;;;;;;;;;;9.70;85.50;;;;;;4969763;28;19914;-77
2022/01/30 00:46:52;;;;;;;;;;;9.70;85.50;;;;;;4969374;28;19917;-77
2022/01/30 00:49:17;;;;;;;;;;;9.70;85.50;;;;;;4969415;28;20005;-76
2022/01/30 00:51:43;;;;;;;;;;;9.70;85.50;;;;;;4951685;28;20008;-76
2022/01/30 00:54:08;;;;;;;;;;;9.70;85.50;;;;;;4952209;28;19957;-76
2022/01/30 00:56:34;;;;;;;;;;;9.70;85.40;;;;;;4951848;28;19908;-76
2022/01/30 00:58:59;;;;;;;;;;;9.70;85.40;;;;;;4952223;28;20000;-76
2022/01/30 01:01:24;;;;;;;;;;;9.70;85.40;;;;;;4951291;28;20324;-75
2022/01/30 01:03:50;;;;;;;;;;;9.70;85.40;;;;;;4969231;28;19917;-76
2022/01/30 01:06:15;;;;;;;;;;;9.70;85.40;;;;;;4951681;28;19922;-77
2022/01/30 01:08:56;;;;;;;;;;;9.70;85.30;;;;;;4951800;28;20001;-77
2022/01/30 01:24:25;;;;;;;;;;;9.70;85.00;;;;;;4972504;28;20049;-76
2022/01/30 01:26:51;;;;;;;;;;;9.70;85.10;;;;;;4954988;28;20224;-76
2022/01/30 01:29:18;;;;;;;;;;;9.70;85.00;;;;;;4955514;28;19914;-76
2022/01/30 01:31:43;;;;;;;;;;;9.70;84.90;;;;;;4971156;28;19907;-75
2022/01/30 01:36:34;;;;;;;;;;;9.70;84.90;;;;;;4972552;28;19921;-75
2022/01/30 01:39:00;;;;;;;;;;;9.60;84.70;;;;;;4972633;28;19917;-77
2022/01/30 01:41:28;;;;;;;;;;;9.70;84.70;;;;;;4971108;28;20278;-76
2022/01/30 01:43:54;;;;;;;;;;;9.70;84.60;;;;;;4955167;28;19906;-77
2022/01/30 01:46:24;;;;;;;;;;;9.70;84.70;;;;;;4954867;28;20767;-75
2022/01/30 01:48:52;;;;;;;;;;;9.70;84.50;;;;;;4955115;28;19917;-73
2022/01/30 01:51:20;;;;;;;;;;;9.60;84.40;;;;;;4954701;28;19910;-75
2022/01/30 01:53:47;;;;;;;;;;;9.60;84.40;;;;;;4972807;28;19950;-74
2022/01/30 01:56:14;;;;;;;;;;;9.60;84.20;;;;;;4972048;28;19910;-77
2022/01/30 01:58:39;;;;;;;;;;;9.60;84.20;;;;;;4972590;28;19913;-77
2022/01/30 02:01:05;;;;;;;;;;;9.60;84.10;;;;;;4954418;28;20293;-76
2022/01/30 02:03:30;;;;;;;;;;;9.60;84.10;;;;;;4971204;28;19914;-76
2022/01/30 02:06:00;;;;;;;;;;;9.60;84.10;;;;;;4971957;28;19972;-76
2022/01/30 02:08:33;;;;;;;;;;;9.60;84.10;;;;;;4972322;28;19917;-76
2022/01/30 02:11:06;;;;;;;;;;;9.60;84.10;;;;;;4954035;28;19914;-75
2022/01/30 02:24:18;;;;;;;;;;;9.60;84.10;;;;;;4971799;28;20239;-75
2022/01/30 02:26:45;;;;;;;;;;;9.60;84.00;;;;;;4971565;28;20264;-76
2022/01/30 02:29:11;;;;;;;;;;;9.70;84.00;;;;;;4969541;28;20369;-76
2022/01/30 02:31:39;;;;;;;;;;;9.60;84.00;;;;;;4954056;28;19913;-76
2022/01/30 02:34:04;;;;;;;;;;;9.60;84.00;;;;;;4954297;28;20381;-75
2022/01/30 02:36:30;;;;;;;;;;;9.60;83.90;;;;;;4954470;28;19941;-76
2022/01/30 02:39:00;;;;;;;;;;;9.70;84.00;;;;;;4954366;28;19913;-75
2022/01/30 02:41:26;;;;;;;;;;;9.60;83.80;;;;;;4970949;28;19916;-77
2022/01/30 02:44:07;;;;;;;;;;;9.60;83.80;;;;;;4971652;28;19902;-76
2022/01/30 02:46:35;;;;;;;;;;;9.60;83.80;;;;;;4954472;28;19965;-76
2022/01/30 02:49:13;;;;;;;;;;;9.60;84.00;;;;;;4971528;28;19909;-76
2022/01/30 02:51:47;;;;;;;;;;;9.60;83.90;;;;;;4953624;28;19910;-75
2022/01/30 02:54:13;;;;;;;;;;;9.70;84.00;;;;;;4970352;28;19902;-76
2022/01/30 02:56:40;;;;;;;;;;;9.60;84.20;;;;;;4954406;28;19913;-76
2022/01/30 02:59:05;;;;;;;;;;;9.60;83.60;;;;;;4953926;28;19913;-76
2022/01/30 03:01:31;;;;;;;;;;;9.60;83.60;;;;;;4971291;28;19910;-77
2022/01/30 03:03:56;;;;;;;;;;;9.70;83.80;;;;;;4971231;28;19913;-77
2022/01/30 03:06:22;;;;;;;;;;;9.70;83.60;;;;;;4971103;28;19914;-76
2022/01/30 03:08:47;;;;;;;;;;;9.60;84.10;;;;;;4971036;28;19906;-76
2022/01/30 03:11:13;;;;;;;;;;;9.60;83.50;;;;;;4953392;28;20250;-76
2022/01/30 03:13:38;;;;;;;;;;;9.60;83.60;;;;;;4953625;28;20313;-76
2022/01/30 03:16:04;;;;;;;;;;;9.60;83.60;;;;;;4971256;28;19938;-77
2022/01/30 03:18:30;;;;;;;;;;;9.60;83.50;;;;;;4971086;28;19906;-76
2022/01/30 03:20:56;;;;;;;;;;;9.70;83.60;;;;;;4970388;28;19914;-76
2022/01/30 03:23:21;;;;;;;;;;;9.60;83.50;;;;;;4953511;28;19912;-75
2022/01/30 03:25:53;;;;;;;;;;;9.60;83.50;;;;;;4970651;28;19906;-76
2022/01/30 03:28:18;;;;;;;;;;;9.60;83.50;;;;;;4953441;28;19902;-76
2022/01/30 03:30:45;;;;;;;;;;;9.60;83.50;;;;;;4952962;28;20128;-77
2022/01/30 03:33:10;;;;;;;;;;;9.60;83.50;;;;;;4969946;28;19906;-76
2022/01/30 03:35:36;;;;;;;;;;;9.60;83.50;;;;;;4952988;28;19913;-76
2022/01/30 03:38:01;;;;;;;;;;;9.60;83.40;;;;;;4970698;28;19906;-76
2022/01/30 03:40:26;;;;;;;;;;;9.60;83.40;;;;;;4952398;28;19910;-76
2022/01/30 03:42:52;;;;;;;;;;;9.60;83.40;;;;;;4952922;28;19902;-76
2022/01/30 03:45:17;;;;;;;;;;;9.60;83.30;;;;;;4965624;28;19910;-76
2022/01/30 03:47:43;;;;;;;;;;;9.60;83.40;;;;;;4958046;28;19961;-76
2022/01/30 03:50:08;;;;;;;;;;;9.60;83.40;;;;;;4950914;28;20384;-76
2022/01/30 03:52:34;;;;;;;;;;;9.60;83.30;;;;;;4963849;28;20280;-76
2022/01/30 03:55:00;;;;;;;;;;;9.60;83.40;;;;;;4953228;28;19902;-76
2022/01/30 03:57:25;;;;;;;;;;;9.60;83.30;;;;;;4952739;28;20401;-78
2022/01/30 03:59:50;;;;;;;;;;;9.60;83.40;;;;;;4968526;28;19906;-76
2022/01/30 04:02:16;;;;;;;;;;;9.60;83.40;;;;;;4970063;28;20138;-76
2022/01/30 04:04:41;;;;;;;;;;;9.60;83.40;;;;;;4968868;28;19993;-75
2022/01/30 04:07:07;;;;;;;;;;;9.60;83.40;;;;;;4969335;28;19902;-76
2022/01/30 04:09:32;;;;;;;;;;;9.60;83.30;;;;;;4969579;28;19906;-75
2022/01/30 04:11:58;;;;;;;;;;;9.60;83.40;;;;;;4970020;28;19906;-77
2022/01/30 04:14:24;;;;;;;;;;;9.60;83.40;;;;;;4970025;28;20373;-76
2022/01/30 04:16:49;;;;;;;;;;;9.60;83.30;;;;;;4970057;28;19942;-76
2022/01/30 04:19:15;;;;;;;;;;;9.60;83.40;;;;;;4970000;28;20370;-77
2022/01/30 04:21:40;;;;;;;;;;;9.60;83.40;;;;;;4952481;28;19997;-76
2022/01/30 04:24:06;;;;;;;;;;;9.60;83.40;;;;;;4970287;28;20001;-76
2022/01/30 04:26:32;;;;;;;;;;;9.60;83.30;;;;;;4969558;28;20048;-76
2022/01/30 04:28:57;;;;;;;;;;;9.60;83.20;;;;;;4952917;28;19992;-77
2022/01/30 04:31:23;;;;;;;;;;;9.60;83.30;;;;;;4969399;28;19906;-75
2022/01/30 04:33:48;;;;;;;;;;;9.60;83.20;;;;;;4969959;28;19910;-76
2022/01/30 04:36:19;;;;;;;;;;;9.60;83.20;;;;;;4969606;28;19910;-76
2022/01/30 04:39:14;;;;;;;;;;;9.60;83.30;;;;;;4952571;28;20098;-75
2022/01/30 04:42:03;;;;;;;;;;;9.60;83.20;;;;;;4969474;28;20379;-77
2022/01/30 04:52:06;;;;;;;;;;;9.60;83.20;;;;;;4969584;28;19961;-77
2022/01/30 04:56:38;;;;;;;;;;;9.60;83.00;;;;;;4943215;28;19957;-76
2022/01/30 04:59:04;;;;;;;;;;;9.60;83.00;;;;;;4973261;28;19906;-77
2022/01/30 05:04:23;;;;;;;;;;;9.60;82.90;;;;;;4973630;28;20420;-77
2022/01/30 05:07:25;;;;;;;;;;;9.60;82.90;;;;;;4973523;28;19914;-76
2022/01/30 05:09:37;;;;;;;;;;;9.60;82.90;;;;;;4972825;28;20005;-76
2022/01/30 05:12:02;;;;;;;;;;;9.60;82.90;;;;;;4973720;28;20012;-75
2022/01/30 05:14:33;;;;;;;;;;;9.60;82.90;;;;;;4956370;28;19976;-75
2022/01/30 05:16:59;;;;;;;;;;;9.60;82.80;;;;;;4955854;28;19902;-77
2022/01/30 05:19:28;;;;;;;;;;;9.60;82.80;;;;;;4972831;28;19906;-77
2022/01/30 05:21:53;;;;;;;;;;;9.60;82.80;;;;;;4955736;28;19956;-76
2022/01/30 05:24:19;;;;;;;;;;;9.60;82.80;;;;;;4955793;28;19902;-76
2022/01/30 05:26:45;;;;;;;;;;;9.60;82.80;;;;;;4955806;28;19906;-76
2022/01/30 05:29:11;;;;;;;;;;;9.60;82.80;;;;;;4955525;28;19907;-76
2022/01/30 05:31:37;;;;;;;;;;;9.60;82.70;;;;;;4972849;28;19905;-76
2022/01/30 05:34:02;;;;;;;;;;;9.60;82.70;;;;;;4971734;28;19912;-76
2022/01/30 05:36:29;;;;;;;;;;;9.60;83.30;;;;;;4972999;28;19902;-76
2022/01/30 05:38:55;;;;;;;;;;;9.60;82.70;;;;;;4972900;28;20285;-76
2022/01/30 05:41:21;;;;;;;;;;;9.60;82.70;;;;;;4971465;28;19912;-76
2022/01/30 05:43:50;;;;;;;;;;;9.60;82.60;;;;;;4955322;28;20060;-75
2022/01/30 05:46:28;;;;;;;;;;;9.60;82.60;;;;;;4953673;28;19910;-75
2022/01/30 05:48:53;;;;;;;;;;;9.60;82.50;;;;;;4971251;28;19909;-77
2022/01/30 05:51:19;;;;;;;;;;;9.60;82.60;;;;;;4972192;28;19902;-75
2022/01/30 05:53:44;;;;;;;;;;;9.60;82.50;;;;;;4973161;28;19956;-77
2022/01/30 05:56:11;;;;;;;;;;;9.60;82.50;;;;;;4953189;28;19921;-76
2022/01/30 05:58:36;;;;;;;;;;;9.60;82.50;;;;;;4972708;28;19913;-76
2022/01/30 06:01:02;;;;;;;;;;;9.60;82.40;;;;;;4971999;28;19910;-76
2022/01/30 06:03:29;;;;;;;;;;;9.60;82.40;;;;;;4972512;28;20000;-76
2022/01/30 06:05:55;;;;;;;;;;;9.60;82.40;;;;;;4972104;28;19914;-76
2022/01/30 06:11:04;;;;;;;;;;;9.60;82.40;;;;;;4972091;28;19913;-75
2022/01/30 06:13:30;;;;;;;;;;;9.60;82.30;;;;;;4972289;28;19902;-76
2022/01/30 06:15:56;;;;;;;;;;;9.60;82.30;;;;;;4972080;28;19954;-76
2022/01/30 06:18:21;;;;;;;;;;;9.60;82.20;;;;;;4972569;28;20367;-76
2022/01/30 06:20:46;;;;;;;;;;;9.60;82.20;;;;;;4954593;28;19910;-77
2022/01/30 06:23:12;;;;;;;;;;;9.60;82.70;;;;;;4955041;28;19949;-76
2022/01/30 06:25:37;;;;;;;;;;;9.50;82.20;;;;;;4955039;28;19945;-75
2022/01/30 06:28:03;;;;;;;;;;;9.50;82.20;;;;;;4971897;28;19906;-77
2022/01/30 06:30:28;;;;;;;;;;;9.50;82.20;;;;;;4971874;28;19932;-76
2022/01/30 06:32:54;;;;;;;;;;;9.60;82.20;;;;;;4954431;28;19957;-77
2022/01/30 06:35:19;;;;;;;;;;;9.60;82.30;;;;;;4971993;28;19913;-76
2022/01/30 06:37:45;;;;;;;;;;;9.60;82.20;;;;;;4970812;28;20793;-77
2022/01/30 06:40:11;;;;;;;;;;;9.60;82.30;;;;;;4971284;28;20017;-76
2022/01/30 06:42:36;;;;;;;;;;;9.60;82.20;;;;;;4954249;28;19949;-78
2022/01/30 06:45:02;;;;;;;;;;;9.60;82.30;;;;;;4971330;28;19949;-76
2022/01/30 06:47:28;;;;;;;;;;;9.60;82.30;;;;;;4954336;28;19902;-76
2022/01/30 06:49:53;;;;;;;;;;;9.60;82.30;;;;;;4953813;28;20346;-76
2022/01/30 06:52:19;;;;;;;;;;;9.60;82.30;;;;;;4971688;28;20686;-77
2022/01/30 06:54:44;;;;;;;;;;;9.60;82.30;;;;;;4971539;28;19916;-76
2022/01/30 06:57:10;;;;;;;;;;;9.60;82.30;;;;;;4954353;28;19906;-76
2022/01/30 06:59:35;;;;;;;;;;;9.60;82.30;;;;;;4953427;28;19956;-75
2022/01/30 07:02:01;;;;;;;;;;;9.60;82.40;;;;;;4971382;28;19942;-76
2022/01/30 07:04:26;;;;;;;;;;;9.60;82.40;;;;;;4971271;28;20791;-75
2022/01/30 07:06:52;;;;;;;;;;;9.60;82.40;;;;;;4971287;28;19913;-76
2022/01/30 07:09:17;;;;;;;;;;;9.60;82.40;;;;;;4953768;28;20296;-76
2022/01/30 07:11:43;;;;;;;;;;;9.60;82.30;;;;;;4970425;28;19910;-76
2022/01/30 07:14:08;;;;;;;;;;;9.60;82.30;;;;;;4969650;28;20276;-77
2022/01/30 07:16:34;;;;;;;;;;;9.60;82.30;;;;;;4969678;28;19953;-74
2022/01/30 07:18:59;;;;;;;;;;;9.50;82.30;;;;;;4971257;28;19902;-75
2022/01/30 07:21:24;;;;;;;;;;;9.50;82.30;;;;;;4953171;28;19910;-76
2022/01/30 07:23:50;;;;;;;;;;;9.60;82.30;;;;;;4953932;28;19913;-77
2022/01/30 07:26:15;;;;;;;;;;;9.60;82.30;;;;;;4969505;28;19905;-76
2022/01/30 07:28:41;;;;;;;;;;;9.60;82.30;;;;;;4963864;28;19906;-76
2022/01/30 07:31:06;;;;;;;;;;;9.60;82.30;;;;;;4943068;28;20017;-76
2022/01/30 07:33:33;;;;;;;;;;;9.50;82.30;;;;;;4940999;28;19906;-75
2022/01/30 07:35:59;;;;;;;;;;;9.60;82.40;;;;;;4953597;28;19906;-75
2022/01/30 07:38:25;;;;;;;;;;;9.50;82.40;;;;;;4971008;28;19908;-76
2022/01/30 07:40:50;;;;;;;;;;;9.50;82.30;;;;;;4963798;28;19910;-79
2022/01/30 07:43:16;;;;;;;;;;;9.60;82.30;;;;;;4952194;29;19999;-76
2022/01/30 07:45:41;;;;;;;;;;;9.50;82.30;;;;;;4937198;29;19909;-75
2022/01/30 07:48:07;;;;;;;;;;;9.50;82.30;;;;;;4936701;28;19921;-76
2022/01/30 07:50:32;;;;;;;;;;;9.60;82.40;;;;;;4953557;28;19902;-76
2022/01/30 07:52:58;;;;;;;;;;;9.60;82.30;;;;;;4970638;28;20296;-76
2022/01/30 07:55:23;;;;;;;;;;;9.60;82.40;;;;;;4941311;29;20425;-76
2022/01/30 07:57:49;;;;;;;;;;;9.70;82.50;;;;;;4951086;29;19906;-77
2022/01/30 08:00:15;;;;;;;;;;;9.60;82.50;;;;;;4934469;29;20009;-76
2022/01/30 08:02:40;;;;;;;;;;;9.60;82.50;;;;;;4952242;29;20362;-77
2022/01/30 08:05:06;;;;;;;;;;;9.60;82.50;;;;;;4950875;29;19910;-77
2022/01/30 08:07:31;;;;;;;;;;;9.60;82.60;;;;;;4935095;29;19993;-76
2022/01/30 08:09:57;;;;;;;;;;;9.60;82.60;;;;;;4934413;28;19906;-76
2022/01/30 08:12:22;;;;;;;;;;;9.60;82.60;;;;;;4951859;29;19909;-76
2022/01/30 08:14:48;;;;;;;;;;;9.60;82.70;;;;;;4952176;29;19964;-79
2022/01/30 08:17:20;;;;;;;;;;;9.60;82.60;;;;;;4934733;29;19907;-77
2022/01/30 08:19:46;;;;;;;;;;;9.60;82.60;;;;;;4951380;28;19913;-75
2022/01/30 08:22:12;;;;;;;;;;;9.60;82.70;;;;;;4951679;29;19907;-75
2022/01/30 08:24:38;;;;;;;;;;;9.60;82.70;;;;;;4934812;29;19902;-76
2022/01/30 08:27:04;;;;;;;;;;;9.60;82.80;;;;;;4947198;28;20772;-76
2022/01/30 08:29:29;;;;;;;;;;;9.60;82.80;;;;;;4969207;28;19906;-75
2022/01/30 08:31:56;;;;;;;;;;;9.60;82.80;;;;;;4953012;28;19902;-74
2022/01/30 08:34:22;;;;;;;;;;;9.60;82.90;;;;;;4968916;28;19916;-74
2022/01/30 08:36:47;;;;;;;;;;;9.60;82.80;;;;;;4968623;28;19914;-74
2022/01/30 08:39:13;;;;;;;;;;;9.60;82.90;;;;;;4969528;28;19906;-74
2022/01/30 08:41:38;;;;;;;;;;;9.60;83.00;;;;;;4969807;28;20008;-76
2022/01/30 08:44:04;;;;;;;;;;;9.60;83.00;;;;;;4946051;29;19914;-76
2022/01/30 08:46:29;;;;;;;;;;;9.60;82.90;;;;;;4934245;29;19910;-77
2022/01/30 08:48:54;;;;;;;;;;;9.60;83.00;;;;;;4933547;29;19910;-76
2022/01/30 08:51:23;;;;;;;;;;;9.60;83.10;;;;;;4934272;28;20013;-76
2022/01/30 08:53:48;;;;;;;;;;;9.60;83.10;;;;;;4952783;28;20452;-76
2022/01/30 08:56:14;;;;;;;;;;;9.60;83.00;;;;;;4953256;28;20008;-77
2022/01/30 08:58:39;;;;;;;;;;;9.60;83.00;;;;;;4969826;28;19917;-76
2022/01/30 09:01:05;;;;;;;;;;;9.60;82.90;;;;;;4968955;28;19914;-75
2022/01/30 09:03:30;;;;;;;;;;;9.60;82.90;;;;;;4969830;28;19906;-76
2022/01/30 09:05:56;;;;;;;;;;;9.60;82.90;;;;;;4952776;28;19914;-77
2022/01/30 09:08:21;;;;;;;;;;;9.70;83.00;;;;;;4954943;28;19961;-76
2022/01/30 09:10:48;;;;;;;;;;;9.60;83.00;;;;;;4969717;28;19965;-77
2022/01/30 09:13:13;;;;;;;;;;;9.70;83.10;;;;;;4970295;28;19916;-74
2022/01/30 09:15:41;;;;;;;;;;;9.70;82.70;;;;;;4970028;28;20325;-75
2022/01/30 09:18:09;;;;;;;;;;;9.70;82.50;;;;;;4952669;28;20301;-78
2022/01/30 09:20:42;;;;;;;;;;;9.70;82.50;;;;;;4952512;28;19973;-78
2022/01/30 09:23:08;;;;;;;;;;;9.80;82.40;;;;;;4951685;28;20368;-73
2022/01/30 09:25:34;;;;;;;;;;;9.80;82.30;;;;;;4952250;28;20017;-73
2022/01/30 09:27:59;;;;;;;;;;;9.80;82.60;;;;;;4969461;28;20453;-74
2022/01/30 09:30:25;;;;;;;;;;;9.90;82.00;;;;;;4968608;28;19945;-74
2022/01/30 09:32:50;;;;;;;;;;;9.90;82.00;;;;;;4969824;28;19918;-74
2022/01/30 09:35:16;;;;;;;;;;;9.90;81.90;;;;;;4953166;28;20278;-71
2022/01/30 09:37:41;;;;;;;;;;;9.90;82.00;;;;;;4970756;28;20209;-74
2022/01/30 09:40:07;;;;;;;;;;;9.90;82.10;;;;;;4956044;28;19914;-76
2022/01/30 09:42:33;;;;;;;;;;;9.80;82.60;;;;;;4972023;28;20556;-73
2022/01/30 09:45:03;;;;;;;;;;;9.80;82.20;;;;;;4956334;28;19917;-74
2022/01/30 09:47:29;;;;;;;;;;;9.80;82.30;;;;;;4949592;29;19910;-73
2022/01/30 09:49:56;;;;;;;;;;;9.80;82.30;;;;;;4966295;28;19917;-73
2022/01/30 09:52:21;;;;;;;;;;;9.80;82.30;;;;;;4973555;28;19960;-73
2022/01/30 09:54:48;;;;;;;;;;;9.80;82.30;;;;;;4972532;28;19949;-74
2022/01/30 09:57:13;;;;;;;;;;;9.80;82.40;;;;;;4972892;28;19906;-75
2022/01/30 09:59:39;;;;;;;;;;;9.80;82.40;;;;;;4972541;28;19910;-73
2022/01/30 10:02:05;;;;;;;;;;;9.80;82.30;;;;;;4971435;28;20425;-73
2022/01/30 10:04:31;;;;;;;;;;;9.90;82.00;;;;;;4972433;28;20380;-73
2022/01/30 10:07:09;;;;;;;;;;;9.90;81.80;;;;;;4955605;28;19917;-73
2022/01/30 10:09:37;;;;;;;;;;;10.00;81.60;;;;;;4971858;28;19910;-74
2022/01/30 10:12:16;;;;;;;;;;;10.00;81.40;;;;;;4952400;28;19910;-74
2022/01/30 10:14:54;;;;;;;;;;;10.00;81.30;;;;;;4972591;28;20412;-76
2022/01/30 10:17:28;;;;;;;;;;;10.00;81.20;;;;;;4972139;28;19906;-73
2022/01/30 10:20:01;;;;;;;;;;;10.00;81.30;;;;;;4955254;28;20004;-74
2022/01/30 10:22:27;;;;;;;;;;;9.90;81.30;;;;;;4972578;28;19906;-74
2022/01/30 10:24:52;;;;;;;;;;;9.90;81.40;;;;;;4954987;28;19913;-74
2022/01/30 10:27:22;;;;;;;;;;;9.90;81.40;;;;;;4954151;28;19941;-76
2022/01/30 10:30:00;;;;;;;;;;;9.90;81.50;;;;;;4954762;28;20259;-74
2022/01/30 10:32:26;;;;;;;;;;;9.90;81.50;;;;;;4955327;28;20333;-75
2022/01/30 10:34:59;;;;;;;;;;;9.90;81.60;;;;;;4972137;28;20470;-72
2022/01/30 10:37:25;;;;;;;;;;;9.90;81.60;;;;;;4955420;28;19960;-77
2022/01/30 10:40:05;;;;;;;;;;;9.80;81.50;;;;;;4955324;28;19945;-74
2022/01/30 10:42:33;;;;;;;;;;;9.80;81.40;;;;;;4936705;29;19917;-75
2022/01/30 10:44:59;;;;;;;;;;;9.80;81.10;;;;;;4944584;28;20035;-74
2022/01/30 10:47:24;;;;;;;;;;;9.80;81.50;;;;;;4950352;28;20345;-74
2022/01/30 10:49:50;;;;;;;;;;;9.80;81.40;;;;;;4968764;28;19917;-74
2022/01/30 10:52:15;;;;;;;;;;;9.80;81.20;;;;;;4970011;28;20416;-75
2022/01/30 10:54:41;;;;;;;;;;;9.80;80.70;;;;;;4971828;28;19910;-75
2022/01/30 10:57:10;;;;;;;;;;;9.80;80.30;;;;;;4968519;28;19914;-74
2022/01/30 10:59:42;;;;;;;;;;;9.80;79.80;;;;;;4952467;29;19906;-74
2022/01/30 11:02:14;;;;;;;;;;;9.80;79.40;;;;;;4954758;28;19984;-75
2022/01/30 11:04:40;;;;;;;;;;;9.80;79.80;;;;;;4953622;28;19918;-74
2022/01/30 11:07:05;;;;;;;;;;;9.70;79.00;;;;;;4971570;28;19921;-74
2022/01/30 11:09:36;;;;;;;;;;;9.70;79.30;;;;;;4967150;28;20317;-74
2022/01/30 11:12:05;;;;;;;;;;;9.70;78.60;;;;;;4953065;28;19906;-74
2022/01/30 11:14:40;;;;;;;;;;;9.70;78.50;;;;;;4954175;28;19957;-73
2022/01/30 11:17:08;;;;;;;;;;;9.80;78.40;;;;;;4971954;28;20867;-74
2022/01/30 11:19:35;;;;;;;;;;;9.80;78.40;;;;;;4954203;28;19917;-74
2022/01/30 11:22:05;;;;;;;;;;;9.80;78.60;;;;;;4953948;28;20005;-74
2022/01/30 11:24:33;;;;;;;;;;;9.80;78.10;;;;;;4971463;28;20412;-74
2022/01/30 11:26:59;;;;;;;;;;;9.80;78.10;;;;;;4954545;28;19917;-73
2022/01/30 11:29:24;;;;;;;;;;;9.70;78.00;;;;;;4971529;28;19906;-75
2022/01/30 11:31:50;;;;;;;;;;;9.70;78.60;;;;;;4967346;28;19937;-76
2022/01/30 11:34:16;;;;;;;;;;;9.80;78.70;;;;;;4953251;28;20437;-74
2022/01/30 11:36:43;;;;;;;;;;;9.80;78.30;;;;;;4954631;28;19917;-74
2022/01/30 11:39:12;;;;;;;;;;;9.90;78.20;;;;;;4954097;28;20009;-74
2022/01/30 11:41:38;;;;;;;;;;;9.90;78.50;;;;;;4954104;28;19978;-73
2022/01/30 11:44:19;;;;;;;;;;;9.90;78.70;;;;;;4954058;28;19947;-74
2022/01/30 11:46:52;;;;;;;;;;;9.90;78.90;;;;;;4954355;28;19957;-74
2022/01/30 11:49:17;;;;;;;;;;;9.90;78.90;;;;;;4970702;28;19910;-72
2022/01/30 11:51:54;;;;;;;;;;;9.90;78.90;;;;;;4953629;28;19910;-74
2022/01/30 11:54:35;;;;;;;;;;;9.90;78.90;;;;;;4953637;28;19970;-75
2022/01/30 11:57:00;;;;;;;;;;;9.90;78.90;;;;;;4953596;28;20001;-74
2022/01/30 11:59:39;;;;;;;;;;;10.00;79.00;;;;;;4971480;28;20013;-75
2022/01/30 12:02:20;;;;;;;;;;;10.00;79.00;;;;;;4953886;28;19917;-74
2022/01/30 12:04:52;;;;;;;;;;;10.00;79.00;;;;;;4953687;28;19925;-75
2022/01/30 12:07:31;;;;;;;;;;;10.00;78.90;;;;;;4953526;28;19913;-74
2022/01/30 12:10:15;;;;;;;;;;;10.00;78.80;;;;;;4953391;28;19946;-73
2022/01/30 12:12:46;;;;;;;;;;;10.00;78.90;;;;;;4970842;28;19946;-73
2022/01/30 12:15:32;;;;;;;;;;;10.10;79.00;;;;;;4953659;28;20336;-74
2022/01/30 12:17:57;;;;;;;;;;;10.10;78.90;;;;;;4953119;28;19910;-74
2022/01/30 12:20:23;;;;;;;;;;;10.20;78.70;;;;;;4967675;28;19925;-72
2022/01/30 12:22:49;;;;;;;;;;;10.20;77.80;;;;;;4951347;28;19906;-74
2022/01/30 12:25:34;;;;;;;;;;;10.40;77.00;;;;;;4969212;28;20332;-74
2022/01/30 12:28:04;;;;;;;;;;;10.50;76.10;;;;;;4951929;28;19989;-70
2022/01/30 12:30:37;;;;;;;;;;;10.70;74.60;;;;;;4950567;28;19934;-74
2022/01/30 12:33:22;;;;;;;;;;;10.90;74.00;;;;;;4968901;28;19910;-74
2022/01/30 12:35:48;;;;;;;;;;;11.10;73.40;;;;;;4968485;28;19992;-75
2022/01/30 12:38:13;;;;;;;;;;;11.30;73.00;;;;;;4963703;28;20373;-74
2022/01/30 12:40:44;;;;;;;;;;;11.40;72.90;;;;;;4962497;28;19921;-73
2022/01/30 12:43:09;;;;;;;;;;;11.50;72.70;;;;;;4951675;28;20261;-74
2022/01/30 12:45:35;;;;;;;;;;;11.60;73.00;;;;;;4967913;28;19917;-74
2022/01/30 12:48:00;;;;;;;;;;;11.70;72.40;;;;;;4967841;28;19957;-73
2022/01/30 12:50:32;;;;;;;;;;;11.80;72.40;;;;;;4968988;28;20289;-75
2022/01/30 12:52:57;;;;;;;;;;;11.90;72.60;;;;;;4969096;28;19921;-75
2022/01/30 12:55:23;;;;;;;;;;;12.00;72.30;;;;;;4951998;28;19906;-72
2022/01/30 12:57:53;;;;;;;;;;;12.00;72.20;;;;;;4951703;28;19910;-75
2022/01/30 13:00:19;;;;;;;;;;;12.10;72.30;;;;;;4950976;28;19997;-74
2022/01/30 13:03:00;;;;;;;;;;;12.10;72.20;;;;;;4968916;28;19967;-75
2022/01/30 13:05:28;;;;;;;;;;;12.20;72.20;;;;;;4951159;28;19918;-73
2022/01/30 13:07:54;;;;;;;;;;;12.20;72.00;;;;;;4967657;28;19950;-75
2022/01/30 13:10:21;;;;;;;;;;;12.20;72.50;;;;;;4951448;28;19906;-75
2022/01/30 13:12:46;;;;;;;;;;;12.20;72.20;;;;;;4951876;28;19910;-74
2022/01/30 13:15:13;;;;;;;;;;;12.20;72.20;;;;;;4968318;28;19906;-74
2022/01/30 13:17:39;;;;;;;;;;;12.20;72.40;;;;;;4936421;29;20006;-74
2022/01/30 13:20:05;;;;;;;;;;;12.30;72.50;;;;;;4940441;28;20001;-74
2022/01/30 13:22:34;;;;;;;;;;;12.30;72.20;;;;;;4955224;28;20297;-74
2022/01/30 13:25:01;;;;;;;;;;;12.40;72.10;;;;;;4955043;28;19957;-74
2022/01/30 13:27:26;;;;;;;;;;;12.50;71.70;;;;;;4971284;28;19917;-72
2022/01/30 13:29:55;;;;;;;;;;;12.70;71.50;;;;;;4954142;28;19914;-74
2022/01/30 13:32:22;;;;;;;;;;;12.60;71.50;;;;;;4967580;28;19950;-74
2022/01/30 13:34:49;;;;;;;;;;;12.70;70.80;;;;;;4955888;28;19926;-73
2022/01/30 13:37:16;;;;;;;;;;;12.80;70.00;;;;;;4971167;28;19914;-74
2022/01/30 13:39:47;;;;;;;;;;;12.90;69.90;;;;;;4959238;28;19949;-73
2022/01/30 13:48:02;;;;;;;;;;;12.80;70.70;;;;;;4964471;28;19910;-75
2022/01/30 13:50:31;;;;;;;;;;;12.70;70.70;;;;;;4953911;28;19910;-75
2022/01/30 13:53:02;;;;;;;;;;;12.80;70.40;;;;;;4954695;28;19906;-74
2022/01/30 13:55:29;;;;;;;;;;;12.80;70.30;;;;;;4954956;28;19902;-74
2022/01/30 13:57:58;;;;;;;;;;;12.70;71.40;;;;;;4954621;28;19913;-72
2022/01/30 14:00:24;;;;;;;;;;;12.60;71.30;;;;;;4970337;28;19936;-74
2022/01/30 14:02:53;;;;;;;;;;;12.50;72.20;;;;;;4971502;28;19906;-72
2022/01/30 14:05:24;;;;;;;;;;;12.50;70.90;;;;;;4953605;28;19914;-74
2022/01/30 14:07:51;;;;;;;;;;;12.50;70.80;;;;;;4953993;28;19921;-73
2022/01/30 14:10:17;;;;;;;;;;;12.60;70.90;;;;;;4953051;28;19910;-72
2022/01/30 14:12:43;;;;;;;;;;;12.60;70.70;;;;;;4970947;28;19956;-73
2022/01/30 14:15:12;;;;;;;;;;;12.60;70.80;;;;;;4953331;28;20001;-74
2022/01/30 14:17:41;;;;;;;;;;;12.70;71.00;;;;;;4953368;28;19945;-74
2022/01/30 14:20:10;;;;;;;;;;;12.70;71.10;;;;;;4968889;28;19964;-73
2022/01/30 14:22:35;;;;;;;;;;;12.70;71.00;;;;;;4952294;28;20391;-73
2022/01/30 14:25:03;;;;;;;;;;;12.70;70.90;;;;;;4950679;28;19906;-72
2022/01/30 14:27:33;;;;;;;;;;;12.80;70.90;;;;;;4952326;28;19913;-74
2022/01/30 14:30:02;;;;;;;;;;;13.10;70.40;;;;;;4969545;28;19910;-74
2022/01/30 14:32:31;;;;;;;;;;;13.30;69.40;;;;;;4956154;28;19921;-74
2022/01/30 14:34:59;;;;;;;;;;;13.50;69.10;;;;;;4968684;28;19932;-73
2022/01/30 14:37:24;;;;;;;;;;;13.50;68.60;;;;;;4967858;28;19917;-74
2022/01/30 14:39:54;;;;;;;;;;;13.60;68.40;;;;;;4951413;28;19906;-74
2022/01/30 14:42:19;;;;;;;;;;;13.60;68.40;;;;;;4968900;28;20377;-73
2022/01/30 14:44:45;;;;;;;;;;;13.70;68.30;;;;;;4969590;28;19910;-74
2022/01/30 14:47:10;;;;;;;;;;;13.70;68.20;;;;;;4969120;28;20380;-72
2022/01/30 14:49:36;;;;;;;;;;;13.70;68.00;;;;;;4951483;28;19945;-74
2022/01/30 14:52:03;;;;;;;;;;;13.70;68.00;;;;;;4951587;28;19980;-75
2022/01/30 14:54:29;;;;;;;;;;;13.70;68.00;;;;;;4968724;28;19969;-74
2022/01/30 14:56:54;;;;;;;;;;;13.70;67.50;;;;;;4951565;28;19910;-74
2022/01/30 14:59:20;;;;;;;;;;;13.60;66.90;;;;;;4951549;28;19910;-75
2022/01/30 15:01:45;;;;;;;;;;;13.60;66.50;;;;;;4967169;28;19921;-74
2022/01/30 15:04:11;;;;;;;;;;;13.50;65.70;;;;;;4968840;28;19910;-76
2022/01/30 15:06:37;;;;;;;;;;;13.50;65.30;;;;;;4966104;28;20369;-75
2022/01/30 15:09:03;;;;;;;;;;;13.50;64.70;;;;;;4969860;28;19914;-75
2022/01/30 15:11:29;;;;;;;;;;;13.40;65.50;;;;;;4969929;28;19946;-75
2022/01/30 15:13:54;;;;;;;;;;;13.30;66.30;;;;;;4970333;28;19945;-75
2022/01/30 15:16:23;;;;;;;;;;;13.20;66.40;;;;;;4969056;28;19910;-76
2022/01/30 15:18:49;;;;;;;;;;;13.10;65.80;;;;;;4969033;28;20201;-75
2022/01/30 15:21:15;;;;;;;;;;;13.00;66.40;;;;;;4951823;28;20412;-79